createdAt,value
2022-12-22T00:01:13.796Z,12.20
2022-12-22T00:03:58.783Z,10.33
2022-12-22T00:06:43.753Z,11.40
2022-12-22T00:09:28.620Z,11.33
2022-12-22T00:12:13.881Z,10.47
2022-12-22T00:14:58.867Z,11.13
2022-12-22T00:17:45.371Z,10.87
2022-12-22T00:20:34.835Z,11.27
2022-12-22T00:23:19.770Z,11.07
2022-12-22T00:26:05.214Z,10.23
2022-12-22T00:28:50.539Z,11.33
2022-12-22T00:31:35.352Z,10.70
2022-12-22T00:34:20.033Z,10.87
2022-12-22T00:37:04.966Z,10.80
2022-12-22T00:39:49.777Z,11.07
2022-12-22T00:42:34.536Z,11.17
2022-12-22T00:45:19.322Z,10.37
2022-12-22T00:48:04.587Z,11.30
2022-12-22T00:50:53.543Z,10.20
2022-12-22T00:53:38.353Z,10.50
2022-12-22T00:56:24.214Z,11.10
2022-12-22T00:59:11.161Z,10.50
2022-12-22T01:01:55.947Z,10.50
2022-12-22T01:04:41.281Z,10.80
2022-12-22T01:07:29.664Z,11.33
2022-12-22T01:10:14.394Z,11.10
2022-12-22T01:12:59.769Z,10.33
2022-12-22T01:15:45.587Z,10.10
2022-12-22T01:18:30.451Z,10.33
2022-12-22T01:21:15.222Z,10.37
2022-12-22T01:24:00.498Z,10.53
2022-12-22T01:26:46.082Z,10.07
2022-12-22T01:29:31.237Z,10.63
2022-12-22T01:32:16.091Z,9.90
2022-12-22T01:35:01.415Z,10.10
2022-12-22T01:37:46.105Z,10.00
2022-12-22T01:40:42.037Z,10.37
2022-12-22T01:43:38.522Z,9.97
2022-12-22T01:46:39.782Z,10.50
2022-12-22T01:49:27.449Z,10.27
2022-12-22T01:52:12.192Z,10.00
2022-12-22T01:54:57.109Z,9.83
2022-12-22T01:57:41.813Z,8.93
2022-12-22T02:00:27.137Z,9.87
2022-12-22T02:03:11.976Z,10.10
2022-12-22T02:05:58.552Z,9.70
2022-12-22T02:08:45.977Z,9.50
2022-12-22T02:11:45.928Z,9.30
2022-12-22T02:14:36.908Z,9.77
2022-12-22T02:17:32.123Z,9.80
2022-12-22T02:20:38.571Z,9.43
2022-12-22T02:23:42.146Z,10.07
2022-12-22T02:26:45.949Z,9.80
2022-12-22T02:29:35.520Z,9.17
2022-12-22T02:32:20.917Z,9.37
2022-12-22T02:35:05.627Z,9.20
2022-12-22T02:37:50.483Z,9.33
2022-12-22T02:40:41.837Z,9.60
2022-12-22T02:43:26.771Z,9.63
2022-12-22T02:46:20.609Z,8.70
2022-12-22T02:49:09.177Z,9.53
2022-12-22T02:51:59.160Z,9.63
2022-12-22T02:54:45.601Z,9.07
2022-12-22T02:57:33.953Z,10.03
2022-12-22T03:00:18.841Z,8.73
2022-12-22T03:03:04.346Z,9.43
2022-12-22T03:05:49.236Z,8.47
2022-12-22T03:08:34.018Z,9.20
2022-12-22T03:11:18.747Z,9.33
2022-12-22T03:14:03.716Z,8.70
2022-12-22T03:16:48.560Z,9.37
2022-12-22T03:19:33.360Z,9.27
2022-12-22T03:22:18.096Z,9.30
2022-12-22T03:25:02.886Z,8.97
2022-12-22T03:27:29.124Z,9.10
2022-12-22T03:29:55.352Z,8.40
2022-12-22T03:32:21.588Z,8.63
2022-12-22T03:34:47.838Z,8.70
2022-12-22T03:37:14.098Z,9.03
2022-12-22T03:39:40.332Z,8.70
2022-12-22T03:42:25.156Z,9.30
2022-12-22T03:45:09.948Z,9.20
2022-12-22T03:47:36.172Z,9.17
2022-12-22T03:50:02.378Z,8.73
2022-12-22T03:52:28.592Z,9.13
2022-12-22T03:54:54.827Z,9.17
2022-12-22T03:57:21.062Z,9.33
2022-12-22T03:59:47.276Z,9.67
2022-12-22T04:02:13.577Z,8.33
2022-12-22T04:04:39.890Z,9.57
2022-12-22T04:07:06.130Z,8.87
2022-12-22T04:09:32.389Z,9.30
2022-12-22T04:12:17.407Z,9.67
2022-12-22T04:14:43.697Z,9.10
2022-12-22T04:17:10.031Z,8.93
2022-12-22T04:19:36.246Z,9.37
2022-12-22T04:22:02.517Z,9.90
2022-12-22T04:24:28.805Z,9.27
2022-12-22T04:26:55.136Z,9.70
2022-12-22T04:29:21.416Z,9.87
2022-12-22T04:31:47.703Z,9.63
2022-12-22T04:34:13.997Z,10.60
2022-12-22T04:36:40.235Z,10.60
2022-12-22T04:39:06.453Z,10.13
2022-12-22T04:41:32.870Z,10.37
2022-12-22T04:43:59.164Z,10.97
2022-12-22T04:46:25.532Z,10.77
2022-12-22T04:48:56.177Z,10.60
2022-12-22T04:51:25.717Z,10.87
2022-12-22T04:53:51.929Z,10.87
2022-12-22T04:56:18.156Z,11.33
2022-12-22T04:58:44.410Z,10.77
2022-12-22T05:01:11.763Z,11.13
2022-12-22T05:03:38.247Z,11.43
2022-12-22T05:06:04.699Z,11.43
2022-12-22T05:08:31.101Z,11.33
2022-12-22T05:10:57.325Z,11.23
2022-12-22T05:13:23.565Z,10.70
2022-12-22T05:15:49.791Z,11.63
2022-12-22T05:18:17.037Z,11.83
2022-12-22T05:20:43.304Z,12.43
2022-12-22T05:23:09.561Z,11.63
2022-12-22T05:25:35.871Z,11.13
2022-12-22T05:28:02.719Z,11.40
2022-12-22T05:30:29.007Z,12.77
2022-12-22T05:32:55.302Z,12.40
2022-12-22T05:35:21.529Z,11.03
2022-12-22T05:37:47.757Z,12.30
2022-12-22T05:40:14.166Z,12.20
2022-12-22T05:42:40.494Z,12.00
2022-12-22T05:45:14.953Z,12.33
2022-12-22T05:47:42.137Z,11.57
2022-12-22T05:50:08.851Z,12.63
2022-12-22T05:52:35.403Z,12.43
2022-12-22T05:55:01.768Z,12.50
2022-12-22T05:57:28.059Z,11.87
2022-12-22T05:59:54.342Z,12.27
2022-12-22T06:02:20.765Z,12.53
2022-12-22T06:04:47.121Z,11.77
2022-12-22T06:07:13.440Z,12.20
2022-12-22T06:09:39.674Z,12.00
2022-12-22T06:12:06.834Z,12.30
2022-12-22T06:14:33.200Z,11.40
2022-12-22T06:16:59.489Z,11.67
2022-12-22T06:19:25.726Z,11.83
2022-12-22T06:21:51.960Z,11.93
2022-12-22T06:24:18.183Z,12.63
2022-12-22T06:26:44.405Z,12.07
2022-12-22T06:29:10.692Z,12.20
2022-12-22T06:31:36.994Z,11.60
2022-12-22T06:34:03.279Z,11.80
2022-12-22T06:36:29.499Z,12.80
2022-12-22T06:38:55.769Z,12.33
2022-12-22T06:41:40.605Z,12.30
2022-12-22T06:44:07.163Z,11.90
2022-12-22T06:46:33.468Z,12.07
2022-12-22T06:48:59.775Z,11.53
2022-12-22T06:51:26.015Z,11.80
2022-12-22T06:53:52.230Z,11.73
2022-12-22T06:56:18.451Z,11.93
2022-12-22T06:58:44.669Z,11.83
2022-12-22T07:01:10.931Z,12.23
2022-12-22T07:03:37.261Z,10.97
2022-12-22T07:06:03.612Z,11.43
2022-12-22T07:08:29.815Z,12.17
2022-12-22T07:10:59.182Z,12.17
2022-12-22T07:13:33.906Z,10.93
2022-12-22T07:16:02.106Z,12.50
2022-12-22T07:18:29.698Z,12.13
2022-12-22T07:20:56.024Z,11.80
2022-12-22T07:23:22.303Z,11.80
2022-12-22T07:25:49.353Z,11.70
2022-12-22T07:28:20.607Z,11.70
2022-12-22T07:30:47.363Z,11.03
2022-12-22T07:33:13.606Z,10.93
2022-12-22T07:35:39.822Z,11.83
2022-12-22T07:38:06.097Z,11.57
2022-12-22T07:40:32.339Z,10.70
2022-12-22T07:42:59.310Z,11.33
2022-12-22T07:45:25.949Z,11.83
2022-12-22T07:47:52.255Z,11.93
2022-12-22T07:50:26.011Z,12.00
2022-12-22T07:52:52.843Z,11.17
2022-12-22T07:55:19.299Z,11.93
2022-12-22T07:57:45.673Z,11.97
2022-12-22T08:00:12.907Z,11.70
2022-12-22T08:02:39.660Z,11.03
2022-12-22T08:05:06.613Z,12.03
2022-12-22T08:07:32.875Z,11.93
2022-12-22T08:09:59.317Z,10.80
2022-12-22T08:12:25.641Z,10.57
2022-12-22T08:14:51.968Z,10.37
2022-12-22T08:17:18.276Z,10.27
2022-12-22T08:19:44.664Z,11.30
2022-12-22T08:22:12.243Z,11.10
2022-12-22T08:24:38.495Z,10.70
2022-12-22T08:27:08.668Z,10.20
2022-12-22T08:29:37.218Z,10.60
2022-12-22T08:32:03.890Z,10.40
2022-12-22T08:34:30.438Z,9.87
2022-12-22T08:36:58.022Z,10.67
2022-12-22T08:39:25.343Z,10.63
2022-12-22T08:41:51.722Z,10.97
2022-12-22T08:44:22.784Z,10.10
2022-12-22T08:46:49.520Z,10.70
2022-12-22T08:49:16.223Z,10.57
2022-12-22T08:51:42.673Z,9.17
2022-12-22T08:54:08.945Z,9.83
2022-12-22T08:56:35.492Z,10.00
2022-12-22T08:59:05.424Z,9.00
2022-12-22T09:01:32.934Z,10.10
2022-12-22T09:03:59.461Z,9.30
2022-12-22T09:06:27.444Z,9.83
2022-12-22T09:08:55.481Z,9.93
2022-12-22T09:11:21.741Z,9.00
2022-12-22T09:13:50.046Z,9.43
2022-12-22T09:16:16.325Z,9.80
2022-12-22T09:18:42.564Z,9.33
2022-12-22T09:21:08.798Z,8.73
2022-12-22T09:23:35.042Z,9.30
2022-12-22T09:26:06.264Z,9.67
2022-12-22T09:28:32.498Z,8.77
2022-12-22T09:30:58.703Z,9.00
2022-12-22T09:33:26.959Z,8.90
2022-12-22T09:35:53.475Z,8.93
2022-12-22T09:38:20.168Z,9.67
2022-12-22T09:40:46.427Z,8.83
2022-12-22T09:43:16.859Z,9.40
2022-12-22T09:45:43.813Z,9.40
2022-12-22T09:48:13.917Z,9.07
2022-12-22T09:50:41.965Z,8.60
2022-12-22T09:53:14.020Z,9.33
2022-12-22T09:55:42.688Z,8.83
2022-12-22T09:58:18.299Z,8.67
2022-12-22T10:01:10.307Z,9.00
2022-12-22T10:03:42.619Z,8.10
2022-12-22T10:06:12.148Z,8.53
2022-12-22T10:08:40.655Z,8.37
2022-12-22T10:11:07.366Z,9.00
2022-12-22T10:13:33.746Z,8.50
2022-12-22T10:15:59.986Z,8.70
2022-12-22T10:18:27.664Z,8.60
2022-12-22T10:21:09.338Z,8.50
2022-12-22T10:23:40.215Z,8.57
2022-12-22T10:29:01.184Z,8.17
2022-12-22T10:31:29.669Z,7.63
2022-12-22T10:33:57.723Z,8.33
2022-12-22T10:36:28.592Z,8.67
2022-12-22T10:38:54.988Z,9.20
2022-12-22T10:41:22.250Z,9.63
2022-12-22T10:43:53.268Z,9.07
2022-12-22T10:46:31.147Z,8.43
2022-12-22T10:49:09.339Z,7.80
2022-12-22T10:51:35.855Z,8.00
2022-12-22T10:54:02.218Z,7.87
2022-12-22T10:56:30.068Z,8.00
2022-12-22T10:59:04.020Z,7.87
2022-12-22T11:01:34.731Z,7.60
2022-12-22T11:04:18.454Z,8.20
2022-12-22T11:06:44.933Z,7.93
2022-12-22T11:09:32.540Z,7.33
2022-12-22T11:12:05.413Z,7.80
2022-12-22T11:14:48.270Z,7.50
2022-12-22T11:17:22.860Z,7.83
2022-12-22T11:19:53.555Z,7.10
2022-12-22T11:22:40.141Z,7.57
2022-12-22T11:25:29.689Z,6.67
2022-12-22T11:28:01.835Z,7.67
2022-12-22T11:30:34.586Z,7.43
2022-12-22T11:33:15.983Z,7.73
2022-12-22T11:35:42.196Z,6.73
2022-12-22T11:38:16.464Z,7.13
2022-12-22T11:40:46.380Z,7.10
2022-12-22T11:43:31.547Z,7.33
2022-12-22T11:46:13.142Z,7.33
2022-12-22T11:48:58.121Z,6.83
2022-12-22T11:51:38.800Z,7.17
2022-12-22T11:54:17.184Z,7.27
2022-12-22T11:57:02.419Z,7.00
2022-12-22T11:59:43.233Z,7.60
2022-12-22T12:02:18.532Z,7.63
2022-12-22T12:05:00.234Z,7.30
2022-12-22T12:07:29.577Z,7.50
2022-12-22T12:10:04.133Z,7.50
2022-12-22T12:12:38.532Z,7.60
2022-12-22T12:15:09.364Z,7.00
2022-12-22T12:17:55.864Z,7.77
2022-12-22T12:20:27.931Z,7.10
2022-12-22T12:23:03.509Z,8.03
2022-12-22T12:25:53.142Z,8.20
2022-12-22T12:28:23.113Z,7.87
2022-12-22T12:30:55.313Z,7.90
2022-12-22T12:33:32.317Z,8.13
2022-12-22T12:36:04.796Z,8.13
2022-12-22T12:39:09.547Z,7.70
2022-12-22T12:41:54.791Z,7.63
2022-12-22T12:44:23.659Z,8.53
2022-12-22T12:46:52.906Z,7.77
2022-12-22T12:49:34.340Z,7.60
2022-12-22T12:52:03.874Z,7.50
2022-12-22T12:54:30.140Z,7.70
2022-12-22T12:57:00.657Z,7.80
2022-12-22T12:59:41.955Z,7.67
2022-12-22T13:02:31.255Z,7.77
2022-12-22T13:05:12.925Z,7.80
2022-12-22T13:07:57.873Z,7.50
2022-12-22T13:10:25.264Z,7.67
2022-12-22T13:12:54.241Z,8.13
2022-12-22T13:15:34.144Z,8.13
2022-12-22T13:18:02.081Z,8.10
2022-12-22T13:20:31.243Z,7.20
2022-12-22T13:23:00.086Z,7.73
2022-12-22T13:25:33.163Z,7.53
2022-12-22T13:27:59.823Z,8.07
2022-12-22T13:30:27.702Z,8.13
2022-12-22T13:35:35.655Z,7.53
2022-12-22T13:38:03.028Z,6.87
2022-12-22T13:40:33.333Z,6.80
2022-12-22T13:43:10.013Z,7.03
2022-12-22T13:45:37.857Z,7.43
2022-12-22T13:48:09.764Z,7.70
2022-12-22T13:50:37.908Z,7.50
2022-12-22T13:53:06.363Z,6.70
2022-12-22T13:55:32.932Z,6.50
2022-12-22T13:58:02.739Z,6.37
2022-12-22T14:00:29.672Z,6.03
2022-12-22T14:02:56.198Z,6.23
2022-12-22T14:05:22.536Z,5.87
2022-12-22T14:07:59.611Z,5.07
2022-12-22T14:10:27.849Z,5.40
2022-12-22T14:12:54.177Z,5.40
2022-12-22T14:15:20.565Z,5.90
2022-12-22T14:17:52.663Z,5.47
2022-12-22T14:20:21.618Z,5.50
2022-12-22T14:23:08.130Z,5.67
2022-12-22T14:25:36.773Z,5.43
2022-12-22T14:28:04.848Z,5.53
2022-12-22T14:30:38.250Z,5.40
2022-12-22T14:33:29.831Z,5.77
2022-12-22T14:36:15.677Z,5.50
2022-12-22T14:38:47.536Z,5.17
2022-12-22T14:41:40.933Z,4.70
2022-12-22T14:44:13.293Z,4.37
2022-12-22T14:46:40.184Z,4.30
2022-12-22T14:49:12.180Z,4.07
2022-12-22T14:51:38.419Z,3.80
2022-12-22T14:54:04.816Z,3.97
2022-12-22T14:56:31.193Z,3.83
2022-12-22T14:59:22.317Z,3.17
2022-12-22T15:01:59.099Z,3.30
2022-12-22T15:04:25.523Z,3.37
2022-12-22T15:06:51.844Z,3.27
2022-12-22T15:09:33.328Z,3.10
2022-12-22T15:12:06.656Z,3.47
2022-12-22T15:14:38.629Z,3.50
2022-12-22T15:17:06.397Z,3.43
2022-12-22T15:19:34.453Z,3.50
2022-12-22T15:22:00.924Z,3.10
2022-12-22T15:24:27.497Z,3.40
2022-12-22T15:26:53.711Z,3.43
2022-12-22T15:29:20.743Z,3.40
2022-12-22T15:31:47.031Z,3.50
2022-12-22T15:34:16.404Z,3.47
2022-12-22T15:36:42.797Z,3.80
2022-12-22T15:39:13.235Z,4.10
2022-12-22T15:41:39.531Z,4.07
2022-12-22T15:44:05.865Z,4.07
2022-12-22T15:46:32.428Z,4.43
2022-12-22T15:48:58.707Z,4.30
2022-12-22T15:51:26.640Z,4.80
2022-12-22T15:53:54.360Z,4.53
2022-12-22T15:56:21.709Z,4.70
2022-12-22T15:58:48.159Z,4.93
2022-12-22T16:01:15.690Z,5.40
2022-12-22T16:03:42.154Z,5.50
2022-12-22T16:06:13.713Z,5.53
2022-12-22T16:08:40.689Z,6.53
2022-12-22T16:11:07.257Z,7.60
2022-12-22T16:13:35.567Z,7.37
2022-12-22T16:16:02.113Z,8.20
2022-12-22T16:18:28.437Z,8.50
2022-12-22T16:20:55.610Z,9.53
2022-12-22T16:23:23.586Z,10.00
2022-12-22T16:25:53.292Z,10.10
2022-12-22T16:28:22.827Z,9.77
2022-12-22T16:30:49.290Z,10.47
2022-12-22T16:33:15.723Z,9.93
2022-12-22T16:35:42.133Z,10.00
2022-12-22T16:38:13.030Z,10.43
2022-12-22T16:41:00.920Z,9.70
2022-12-22T16:46:17.069Z,9.97
2022-12-22T16:48:45.756Z,10.43
2022-12-22T16:51:15.307Z,9.50
2022-12-22T16:53:41.526Z,11.33
2022-12-22T16:56:11.299Z,10.83
2022-12-22T16:58:37.509Z,10.83
2022-12-22T17:01:04.702Z,10.67
2022-12-22T17:03:31.384Z,10.67
2022-12-22T17:05:59.304Z,10.17
2022-12-22T17:08:27.176Z,9.97
2022-12-22T17:10:54.489Z,10.57
2022-12-22T17:13:21.109Z,10.57
2022-12-22T17:15:47.571Z,10.67
2022-12-22T17:18:15.354Z,10.20
2022-12-22T17:20:41.776Z,10.97
2022-12-22T17:23:16.403Z,10.50
2022-12-22T17:25:42.700Z,10.80
2022-12-22T17:28:10.353Z,10.70
2022-12-22T17:30:36.608Z,11.60
2022-12-22T17:33:02.852Z,10.77
2022-12-22T17:35:33.143Z,11.53
2022-12-22T17:37:59.396Z,10.83
2022-12-22T17:40:30.771Z,11.20
2022-12-22T17:42:58.712Z,10.70
2022-12-22T17:45:25.048Z,10.80
2022-12-22T17:47:51.420Z,10.60
2022-12-22T17:50:18.868Z,9.87
2022-12-22T17:52:45.599Z,11.17
2022-12-22T17:55:49.785Z,11.30
2022-12-22T17:58:10.581Z,10.53
2022-12-22T18:00:36.809Z,11.70
2022-12-22T18:03:03.293Z,11.73
2022-12-22T18:05:33.293Z,11.47
2022-12-22T18:08:00.592Z,11.23
2022-12-22T18:10:34.036Z,11.87
2022-12-22T18:13:01.107Z,11.50
2022-12-22T18:15:28.412Z,12.87
2022-12-22T18:17:54.998Z,13.57
2022-12-22T18:20:25.160Z,12.50
2022-12-22T18:22:53.027Z,12.73
2022-12-22T18:25:24.425Z,12.50
2022-12-22T18:27:50.705Z,12.70
2022-12-22T18:30:18.491Z,12.60
2022-12-22T18:32:45.113Z,12.43
2022-12-22T18:35:11.393Z,12.87
2022-12-22T18:37:38.036Z,11.80
2022-12-22T18:40:04.720Z,11.57
2022-12-22T18:42:33.182Z,12.63
2022-12-22T18:44:59.496Z,11.63
2022-12-22T18:47:25.733Z,12.47
2022-12-22T18:49:52.042Z,12.50
2022-12-22T18:52:19.561Z,11.80
2022-12-22T18:54:47.182Z,12.10
2022-12-22T18:57:14.371Z,11.90
2022-12-22T18:59:40.619Z,11.50
2022-12-22T19:02:22.377Z,11.60
2022-12-22T19:04:49.459Z,11.77
2022-12-22T19:07:16.684Z,12.27
2022-12-22T19:09:42.997Z,11.97
2022-12-22T19:12:12.137Z,12.70
2022-12-22T19:14:38.557Z,11.90
2022-12-22T19:17:07.989Z,12.57
2022-12-22T19:19:34.217Z,12.17
2022-12-22T19:22:00.436Z,11.60
2022-12-22T19:24:26.641Z,11.33
2022-12-22T19:26:52.934Z,12.53
2022-12-22T19:29:19.326Z,12.33
2022-12-22T19:31:45.752Z,12.80
2022-12-22T19:34:16.401Z,12.10
2022-12-22T19:36:42.669Z,13.03
2022-12-22T19:39:09.001Z,13.03
2022-12-22T19:41:51.948Z,12.97
2022-12-22T19:44:20.638Z,12.27
2022-12-22T19:46:47.370Z,13.27
2022-12-22T19:49:14.959Z,13.10
2022-12-22T19:51:41.190Z,13.10
2022-12-22T19:54:07.406Z,13.03
2022-12-22T19:56:33.660Z,12.60
2022-12-22T19:59:00.498Z,13.17
2022-12-22T20:01:26.821Z,12.93
2022-12-22T20:03:53.208Z,13.03
2022-12-22T20:06:19.557Z,12.70
2022-12-22T20:08:45.844Z,13.27
2022-12-22T20:11:13.740Z,13.30
2022-12-22T20:13:40.638Z,13.87
2022-12-22T20:16:07.335Z,14.40
2022-12-22T20:18:33.641Z,14.30
2022-12-22T20:20:59.857Z,15.23
2022-12-22T20:23:27.633Z,15.37
2022-12-22T20:25:56.469Z,14.60
2022-12-22T20:28:24.461Z,14.53
2022-12-22T20:30:51.214Z,14.77
2022-12-22T20:33:18.430Z,14.33
2022-12-22T20:35:46.001Z,15.30
2022-12-22T20:38:25.449Z,15.40
2022-12-22T20:40:51.740Z,14.70
2022-12-22T20:43:20.560Z,14.37
2022-12-22T20:45:49.050Z,14.97
2022-12-22T20:48:24.312Z,14.97
2022-12-22T20:50:50.613Z,14.93
2022-12-22T20:53:18.789Z,14.87
2022-12-22T20:55:45.055Z,15.37
2022-12-22T20:58:14.673Z,15.77
2022-12-22T21:00:42.704Z,15.50
2022-12-22T21:03:09.916Z,16.13
2022-12-22T21:05:36.486Z,15.57
2022-12-22T21:08:02.945Z,15.57
2022-12-22T21:10:29.263Z,14.67
2022-12-22T21:12:55.608Z,14.73
2022-12-22T21:15:23.770Z,16.00
2022-12-22T21:17:57.714Z,14.10
2022-12-22T21:20:26.020Z,14.63
2022-12-22T21:22:52.312Z,15.93
2022-12-22T21:25:18.542Z,16.17
2022-12-22T21:27:46.422Z,15.37
2022-12-22T21:30:20.135Z,16.60
2022-12-22T21:32:46.568Z,16.13
2022-12-22T21:35:13.700Z,14.73
2022-12-22T21:37:40.269Z,15.30
2022-12-22T21:40:06.851Z,14.83
2022-12-22T21:42:33.082Z,14.80
2022-12-22T21:44:59.331Z,15.00
2022-12-22T21:47:25.577Z,14.93
2022-12-22T21:49:51.855Z,15.10
2022-12-22T21:52:18.122Z,15.50
2022-12-22T21:54:44.344Z,14.93
2022-12-22T21:57:14.703Z,15.07
2022-12-22T21:59:41.004Z,15.47
2022-12-22T22:02:14.457Z,14.77
2022-12-22T22:04:40.758Z,14.57
2022-12-22T22:07:06.986Z,14.33
2022-12-22T22:09:33.306Z,14.17
2022-12-22T22:12:22.008Z,13.83
2022-12-22T22:14:51.102Z,12.57
2022-12-22T22:17:17.334Z,14.30
2022-12-22T22:19:43.548Z,13.73
2022-12-22T22:22:09.784Z,12.93
2022-12-22T22:24:36.262Z,13.30
2022-12-22T22:27:02.487Z,13.83
2022-12-22T22:29:28.747Z,13.47
2022-12-22T22:31:54.968Z,13.43
2022-12-22T22:34:21.245Z,13.03
2022-12-22T22:36:47.541Z,13.67
2022-12-22T22:39:13.838Z,12.83
2022-12-22T22:41:43.474Z,13.50
2022-12-22T22:44:10.310Z,12.60
2022-12-22T22:46:36.599Z,13.47
2022-12-22T22:49:02.888Z,13.73
2022-12-22T22:51:29.163Z,12.87
2022-12-22T22:53:55.384Z,12.93
2022-12-22T22:56:21.645Z,12.80
2022-12-22T22:58:48.077Z,12.63
2022-12-22T23:01:14.500Z,12.73
2022-12-22T23:03:40.851Z,12.67
2022-12-22T23:06:08.474Z,12.53
2022-12-22T23:08:34.898Z,11.77
2022-12-22T23:11:01.917Z,12.43
2022-12-22T23:13:28.754Z,12.00
2022-12-22T23:15:59.138Z,12.00
2022-12-22T23:18:25.990Z,11.27
2022-12-22T23:20:52.264Z,12.13
2022-12-22T23:23:18.945Z,12.33
2022-12-22T23:25:45.972Z,10.50
2022-12-22T23:28:12.266Z,12.07
2022-12-22T23:30:42.467Z,10.90
2022-12-22T23:33:08.937Z,11.40
2022-12-22T23:35:36.083Z,12.17
2022-12-22T23:38:02.584Z,11.07
2022-12-22T23:43:15.460Z,11.73
2022-12-22T23:45:41.793Z,11.33
2022-12-22T23:48:08.828Z,10.97
2022-12-22T23:50:35.254Z,11.20
2022-12-22T23:53:01.489Z,11.27
2022-12-22T23:55:27.710Z,11.97
2022-12-22T23:57:53.971Z,10.97
